sensor_id;sensor_type;location;lat;lon;timestamp;P1;durP1;ratioP1;P2;durP2;ratioP2
34573;SDS011;20809;49.594;8.734;2023-02-15T00:00:47;243.07;;;28.83;;
34573;SDS011;20809;49.594;8.734;2023-02-15T00:03:48;39.85;;;16.67;;
34573;SDS011;20809;49.594;8.734;2023-02-15T00:06:50;241.18;;;28.98;;
34573;SDS011;20809;49.594;8.734;2023-02-15T00:09:51;118.35;;;20.65;;
34573;SDS011;20809;49.594;8.734;2023-02-15T00:15:53;21.27;;;12.57;;
34573;SDS011;20809;49.594;8.734;2023-02-15T00:18:54;42.60;;;15.82;;
34573;SDS011;20809;49.594;8.734;2023-02-15T00:21:55;27.83;;;15.27;;
34573;SDS011;20809;49.594;8.734;2023-02-15T00:24:56;52.15;;;15.10;;
34573;SDS011;20809;49.594;8.734;2023-02-15T00:27:57;23.27;;;13.50;;
34573;SDS011;20809;49.594;8.734;2023-02-15T00:31:04;26.38;;;14.77;;
34573;SDS011;20809;49.594;8.734;2023-02-15T00:34:13;52.05;;;16.33;;
34573;SDS011;20809;49.594;8.734;2023-02-15T00:37:15;45.70;;;16.55;;
34573;SDS011;20809;49.594;8.734;2023-02-15T00:40:16;29.23;;;14.65;;
34573;SDS011;20809;49.594;8.734;2023-02-15T00:43:17;30.00;;;14.50;;
34573;SDS011;20809;49.594;8.734;2023-02-15T00:46:18;28.98;;;13.45;;
34573;SDS011;20809;49.594;8.734;2023-02-15T00:49:18;30.88;;;14.52;;
34573;SDS011;20809;49.594;8.734;2023-02-15T00:52:19;28.25;;;13.98;;
34573;SDS011;20809;49.594;8.734;2023-02-15T00:55:20;26.90;;;13.25;;
34573;SDS011;20809;49.594;8.734;2023-02-15T00:58:21;24.63;;;13.52;;
34573;SDS011;20809;49.594;8.734;2023-02-15T01:01:22;22.50;;;12.18;;
34573;SDS011;20809;49.594;8.734;2023-02-15T01:07:24;20.50;;;12.57;;
34573;SDS011;20809;49.594;8.734;2023-02-15T01:10:25;51.92;;;13.98;;
34573;SDS011;20809;49.594;8.734;2023-02-15T01:13:27;46.90;;;13.82;;
34573;SDS011;20809;49.594;8.734;2023-02-15T01:16:29;28.83;;;11.85;;
34573;SDS011;20809;49.594;8.734;2023-02-15T01:19:29;21.00;;;12.20;;
34573;SDS011;20809;49.594;8.734;2023-02-15T01:22:30;51.65;;;13.23;;
34573;SDS011;20809;49.594;8.734;2023-02-15T01:25:32;69.68;;;13.93;;
34573;SDS011;20809;49.594;8.734;2023-02-15T01:28:34;44.92;;;11.55;;
34573;SDS011;20809;49.594;8.734;2023-02-15T01:34:38;21.58;;;11.23;;
34573;SDS011;20809;49.594;8.734;2023-02-15T01:37:39;34.28;;;11.50;;
34573;SDS011;20809;49.594;8.734;2023-02-15T01:40:43;20.25;;;9.60;;
34573;SDS011;20809;49.594;8.734;2023-02-15T01:43:45;14.00;;;8.75;;
34573;SDS011;20809;49.594;8.734;2023-02-15T01:46:51;28.20;;;11.00;;
34573;SDS011;20809;49.594;8.734;2023-02-15T01:50:09;19.98;;;11.15;;
34573;SDS011;20809;49.594;8.734;2023-02-15T01:59:14;31.55;;;12.32;;
34573;SDS011;20809;49.594;8.734;2023-02-15T02:02:20;28.20;;;13.50;;
34573;SDS011;20809;49.594;8.734;2023-02-15T02:05:24;42.65;;;14.05;;
34573;SDS011;20809;49.594;8.734;2023-02-15T02:08:25;64.47;;;14.68;;
34573;SDS011;20809;49.594;8.734;2023-02-15T02:14:27;54.73;;;12.00;;
34573;SDS011;20809;49.594;8.734;2023-02-15T02:20:59;24.40;;;11.82;;
34573;SDS011;20809;49.594;8.734;2023-02-15T02:24:40;30.52;;;12.18;;
34573;SDS011;20809;49.594;8.734;2023-02-15T02:34:30;63.58;;;16.13;;
34573;SDS011;20809;49.594;8.734;2023-02-15T02:37:45;30.40;;;12.57;;
34573;SDS011;20809;49.594;8.734;2023-02-15T02:44:18;52.95;;;14.45;;
34573;SDS011;20809;49.594;8.734;2023-02-15T02:47:40;51.45;;;14.80;;
34573;SDS011;20809;49.594;8.734;2023-02-15T02:50:45;51.55;;;14.50;;
34573;SDS011;20809;49.594;8.734;2023-02-15T02:53:47;78.95;;;15.02;;
34573;SDS011;20809;49.594;8.734;2023-02-15T02:56:51;39.63;;;14.15;;
34573;SDS011;20809;49.594;8.734;2023-02-15T02:59:53;55.97;;;16.98;;
34573;SDS011;20809;49.594;8.734;2023-02-15T03:03:02;51.17;;;15.63;;
34573;SDS011;20809;49.594;8.734;2023-02-15T03:06:10;105.22;;;22.80;;
34573;SDS011;20809;49.594;8.734;2023-02-15T03:12:43;29.02;;;13.88;;
34573;SDS011;20809;49.594;8.734;2023-02-15T03:15:45;60.95;;;16.25;;
34573;SDS011;20809;49.594;8.734;2023-02-15T03:19:08;43.15;;;15.00;;
34573;SDS011;20809;49.594;8.734;2023-02-15T03:22:17;33.30;;;14.25;;
34573;SDS011;20809;49.594;8.734;2023-02-15T03:25:22;42.22;;;14.73;;
34573;SDS011;20809;49.594;8.734;2023-02-15T03:28:48;63.88;;;17.60;;
34573;SDS011;20809;49.594;8.734;2023-02-15T03:31:55;58.03;;;16.23;;
34573;SDS011;20809;49.594;8.734;2023-02-15T03:34:59;44.40;;;17.00;;
34573;SDS011;20809;49.594;8.734;2023-02-15T03:41:02;35.95;;;12.93;;
34573;SDS011;20809;49.594;8.734;2023-02-15T03:45:12;27.17;;;13.90;;
34573;SDS011;20809;49.594;8.734;2023-02-15T03:47:54;26.63;;;12.95;;
34573;SDS011;20809;49.594;8.734;2023-02-15T03:51:04;41.67;;;14.35;;
34573;SDS011;20809;49.594;8.734;2023-02-15T03:54:27;61.10;;;15.23;;
34573;SDS011;20809;49.594;8.734;2023-02-15T03:57:48;67.35;;;17.08;;
34573;SDS011;20809;49.594;8.734;2023-02-15T04:01:14;84.63;;;17.58;;
34573;SDS011;20809;49.594;8.734;2023-02-15T04:04:46;48.50;;;16.50;;
34573;SDS011;20809;49.594;8.734;2023-02-15T04:07:48;34.70;;;15.55;;
34573;SDS011;20809;49.594;8.734;2023-02-15T04:10:49;52.65;;;16.48;;
34573;SDS011;20809;49.594;8.734;2023-02-15T04:13:53;46.47;;;16.90;;
34573;SDS011;20809;49.594;8.734;2023-02-15T04:16:56;33.00;;;14.80;;
34573;SDS011;20809;49.594;8.734;2023-02-15T04:19:57;71.65;;;17.45;;
34573;SDS011;20809;49.594;8.734;2023-02-15T04:23:16;26.50;;;12.77;;
34573;SDS011;20809;49.594;8.734;2023-02-15T04:26:35;43.65;;;15.43;;
34573;SDS011;20809;49.594;8.734;2023-02-15T04:32:38;19.17;;;9.52;;
34573;SDS011;20809;49.594;8.734;2023-02-15T04:35:38;39.80;;;14.13;;
34573;SDS011;20809;49.594;8.734;2023-02-15T04:38:39;31.08;;;13.15;;
34573;SDS011;20809;49.594;8.734;2023-02-15T04:41:40;25.42;;;13.70;;
34573;SDS011;20809;49.594;8.734;2023-02-15T04:44:42;27.20;;;13.40;;
34573;SDS011;20809;49.594;8.734;2023-02-15T04:47:43;29.73;;;14.70;;
34573;SDS011;20809;49.594;8.734;2023-02-15T04:50:44;26.55;;;13.40;;
34573;SDS011;20809;49.594;8.734;2023-02-15T04:53:45;33.63;;;13.15;;
34573;SDS011;20809;49.594;8.734;2023-02-15T04:56:46;24.73;;;12.32;;
34573;SDS011;20809;49.594;8.734;2023-02-15T04:59:47;23.17;;;12.48;;
34573;SDS011;20809;49.594;8.734;2023-02-15T05:02:48;23.17;;;11.35;;
34573;SDS011;20809;49.594;8.734;2023-02-15T05:05:49;31.75;;;12.93;;
34573;SDS011;20809;49.594;8.734;2023-02-15T05:11:51;26.05;;;13.38;;
34573;SDS011;20809;49.594;8.734;2023-02-15T05:14:52;30.05;;;13.18;;
34573;SDS011;20809;49.594;8.734;2023-02-15T05:17:53;26.98;;;13.23;;
34573;SDS011;20809;49.594;8.734;2023-02-15T05:20:54;24.48;;;12.18;;
34573;SDS011;20809;49.594;8.734;2023-02-15T05:23:54;20.08;;;11.48;;
34573;SDS011;20809;49.594;8.734;2023-02-15T05:26:55;25.55;;;13.38;;
34573;SDS011;20809;49.594;8.734;2023-02-15T05:30:14;28.10;;;13.63;;
34573;SDS011;20809;49.594;8.734;2023-02-15T05:33:15;25.67;;;12.30;;
34573;SDS011;20809;49.594;8.734;2023-02-15T05:36:16;22.42;;;12.38;;
34573;SDS011;20809;49.594;8.734;2023-02-15T05:39:17;18.27;;;11.27;;
34573;SDS011;20809;49.594;8.734;2023-02-15T05:42:17;19.80;;;11.07;;
34573;SDS011;20809;49.594;8.734;2023-02-15T05:45:18;24.33;;;11.55;;
34573;SDS011;20809;49.594;8.734;2023-02-15T05:48:20;19.20;;;11.38;;
34573;SDS011;20809;49.594;8.734;2023-02-15T05:51:22;25.35;;;12.25;;
34573;SDS011;20809;49.594;8.734;2023-02-15T05:54:23;23.00;;;12.70;;
34573;SDS011;20809;49.594;8.734;2023-02-15T05:57:23;24.92;;;14.13;;
34573;SDS011;20809;49.594;8.734;2023-02-15T06:00:24;21.02;;;11.40;;
34573;SDS011;20809;49.594;8.734;2023-02-15T06:03:25;20.33;;;11.38;;
34573;SDS011;20809;49.594;8.734;2023-02-15T06:06:28;24.63;;;13.70;;
34573;SDS011;20809;49.594;8.734;2023-02-15T06:09:29;19.40;;;11.90;;
34573;SDS011;20809;49.594;8.734;2023-02-15T06:12:29;23.92;;;14.35;;
34573;SDS011;20809;49.594;8.734;2023-02-15T06:15:30;19.48;;;11.32;;
34573;SDS011;20809;49.594;8.734;2023-02-15T06:18:31;17.50;;;9.90;;
34573;SDS011;20809;49.594;8.734;2023-02-15T06:21:32;16.20;;;10.48;;
34573;SDS011;20809;49.594;8.734;2023-02-15T06:24:33;20.23;;;11.57;;
34573;SDS011;20809;49.594;8.734;2023-02-15T06:27:34;18.33;;;10.15;;
34573;SDS011;20809;49.594;8.734;2023-02-15T06:30:35;19.58;;;10.75;;
34573;SDS011;20809;49.594;8.734;2023-02-15T06:33:36;20.45;;;11.25;;
34573;SDS011;20809;49.594;8.734;2023-02-15T06:36:38;18.13;;;10.00;;
34573;SDS011;20809;49.594;8.734;2023-02-15T06:39:39;24.80;;;11.63;;
34573;SDS011;20809;49.594;8.734;2023-02-15T06:42:41;22.08;;;12.55;;
34573;SDS011;20809;49.594;8.734;2023-02-15T06:45:42;28.98;;;13.13;;
34573;SDS011;20809;49.594;8.734;2023-02-15T06:48:43;25.92;;;13.13;;
34573;SDS011;20809;49.594;8.734;2023-02-15T06:51:43;28.65;;;14.30;;
34573;SDS011;20809;49.594;8.734;2023-02-15T06:54:45;25.35;;;13.20;;
34573;SDS011;20809;49.594;8.734;2023-02-15T06:57:45;29.88;;;13.95;;
34573;SDS011;20809;49.594;8.734;2023-02-15T07:00:46;26.48;;;12.88;;
34573;SDS011;20809;49.594;8.734;2023-02-15T07:03:47;28.70;;;14.38;;
34573;SDS011;20809;49.594;8.734;2023-02-15T07:06:48;29.98;;;14.55;;
34573;SDS011;20809;49.594;8.734;2023-02-15T07:09:49;25.67;;;12.50;;
34573;SDS011;20809;49.594;8.734;2023-02-15T07:12:49;26.23;;;14.32;;
34573;SDS011;20809;49.594;8.734;2023-02-15T07:15:50;26.77;;;14.30;;
34573;SDS011;20809;49.594;8.734;2023-02-15T07:18:51;22.67;;;12.68;;
34573;SDS011;20809;49.594;8.734;2023-02-15T07:21:52;27.30;;;13.30;;
34573;SDS011;20809;49.594;8.734;2023-02-15T07:24:53;22.23;;;12.55;;
34573;SDS011;20809;49.594;8.734;2023-02-15T07:31:01;23.52;;;11.95;;
34573;SDS011;20809;49.594;8.734;2023-02-15T07:34:02;25.80;;;11.55;;
34573;SDS011;20809;49.594;8.734;2023-02-15T07:37:07;20.77;;;11.57;;
34573;SDS011;20809;49.594;8.734;2023-02-15T07:40:08;22.23;;;11.85;;
34573;SDS011;20809;49.594;8.734;2023-02-15T07:43:09;23.23;;;12.15;;
34573;SDS011;20809;49.594;8.734;2023-02-15T07:46:14;22.58;;;13.40;;
34573;SDS011;20809;49.594;8.734;2023-02-15T07:49:16;20.95;;;11.10;;
34573;SDS011;20809;49.594;8.734;2023-02-15T07:52:17;20.38;;;11.43;;
34573;SDS011;20809;49.594;8.734;2023-02-15T07:55:18;23.52;;;11.70;;
34573;SDS011;20809;49.594;8.734;2023-02-15T07:58:19;19.17;;;10.40;;
34573;SDS011;20809;49.594;8.734;2023-02-15T08:01:21;20.38;;;11.48;;
34573;SDS011;20809;49.594;8.734;2023-02-15T08:04:26;20.67;;;11.98;;
34573;SDS011;20809;49.594;8.734;2023-02-15T08:07:27;18.13;;;10.88;;
34573;SDS011;20809;49.594;8.734;2023-02-15T08:10:28;20.73;;;11.60;;
34573;SDS011;20809;49.594;8.734;2023-02-15T08:13:50;19.83;;;10.80;;
34573;SDS011;20809;49.594;8.734;2023-02-15T08:16:58;20.13;;;11.98;;
34573;SDS011;20809;49.594;8.734;2023-02-15T08:20:02;19.50;;;11.55;;
34573;SDS011;20809;49.594;8.734;2023-02-15T08:23:03;23.35;;;12.25;;
34573;SDS011;20809;49.594;8.734;2023-02-15T08:26:04;21.42;;;11.02;;
34573;SDS011;20809;49.594;8.734;2023-02-15T08:29:05;22.35;;;11.25;;
34573;SDS011;20809;49.594;8.734;2023-02-15T08:32:10;20.20;;;11.75;;
34573;SDS011;20809;49.594;8.734;2023-02-15T08:35:12;19.27;;;10.73;;
34573;SDS011;20809;49.594;8.734;2023-02-15T08:38:12;16.77;;;10.82;;
34573;SDS011;20809;49.594;8.734;2023-02-15T08:41:15;19.70;;;11.02;;
34573;SDS011;20809;49.594;8.734;2023-02-15T08:44:23;23.25;;;11.50;;
34573;SDS011;20809;49.594;8.734;2023-02-15T08:47:23;24.52;;;12.93;;
34573;SDS011;20809;49.594;8.734;2023-02-15T08:50:24;21.50;;;12.40;;
34573;SDS011;20809;49.594;8.734;2023-02-15T08:53:25;21.20;;;11.70;;
34573;SDS011;20809;49.594;8.734;2023-02-15T08:56:27;20.00;;;10.88;;
34573;SDS011;20809;49.594;8.734;2023-02-15T08:59:30;17.30;;;10.73;;
34573;SDS011;20809;49.594;8.734;2023-02-15T09:02:30;16.52;;;10.13;;
34573;SDS011;20809;49.594;8.734;2023-02-15T09:05:31;18.70;;;10.15;;
34573;SDS011;20809;49.594;8.734;2023-02-15T09:08:32;15.43;;;9.73;;
34573;SDS011;20809;49.594;8.734;2023-02-15T09:11:34;17.65;;;11.45;;
34573;SDS011;20809;49.594;8.734;2023-02-15T09:14:39;15.75;;;10.38;;
34573;SDS011;20809;49.594;8.734;2023-02-15T09:17:40;17.45;;;10.60;;
34573;SDS011;20809;49.594;8.734;2023-02-15T09:20:41;16.85;;;9.45;;
34573;SDS011;20809;49.594;8.734;2023-02-15T09:23:42;17.52;;;10.05;;
34573;SDS011;20809;49.594;8.734;2023-02-15T09:26:45;16.20;;;10.88;;
34573;SDS011;20809;49.594;8.734;2023-02-15T09:29:47;15.48;;;9.75;;
34573;SDS011;20809;49.594;8.734;2023-02-15T09:32:48;16.40;;;11.05;;
34573;SDS011;20809;49.594;8.734;2023-02-15T09:35:52;16.73;;;11.05;;
34573;SDS011;20809;49.594;8.734;2023-02-15T09:38:57;15.07;;;9.90;;
34573;SDS011;20809;49.594;8.734;2023-02-15T09:42:16;13.82;;;8.85;;
34573;SDS011;20809;49.594;8.734;2023-02-15T09:46:02;14.00;;;9.05;;
34573;SDS011;20809;49.594;8.734;2023-02-15T09:50:06;15.02;;;9.50;;
34573;SDS011;20809;49.594;8.734;2023-02-15T09:56:26;16.70;;;11.15;;
34573;SDS011;20809;49.594;8.734;2023-02-15T09:59:44;16.08;;;10.20;;
34573;SDS011;20809;49.594;8.734;2023-02-15T10:03:15;15.02;;;10.45;;
34573;SDS011;20809;49.594;8.734;2023-02-15T10:19:20;18.33;;;10.98;;
34573;SDS011;20809;49.594;8.734;2023-02-15T10:32:32;17.48;;;11.13;;
34573;SDS011;20809;49.594;8.734;2023-02-15T10:52:27;18.60;;;12.05;;
34573;SDS011;20809;49.594;8.734;2023-02-15T11:02:26;26.95;;;15.07;;
34573;SDS011;20809;49.594;8.734;2023-02-15T11:09:10;28.52;;;16.60;;
34573;SDS011;20809;49.594;8.734;2023-02-15T11:12:14;30.05;;;17.60;;
34573;SDS011;20809;49.594;8.734;2023-02-15T11:15:24;30.15;;;18.20;;
34573;SDS011;20809;49.594;8.734;2023-02-15T11:18:36;29.45;;;16.52;;
34573;SDS011;20809;49.594;8.734;2023-02-15T11:21:42;29.65;;;16.15;;
34573;SDS011;20809;49.594;8.734;2023-02-15T11:24:45;29.83;;;16.77;;
34573;SDS011;20809;49.594;8.734;2023-02-15T11:27:48;28.02;;;16.58;;
34573;SDS011;20809;49.594;8.734;2023-02-15T11:30:51;31.45;;;16.63;;
34573;SDS011;20809;49.594;8.734;2023-02-15T11:33:57;25.95;;;15.48;;
34573;SDS011;20809;49.594;8.734;2023-02-15T11:37:23;24.00;;;14.70;;
34573;SDS011;20809;49.594;8.734;2023-02-15T11:40:36;27.27;;;15.38;;
34573;SDS011;20809;49.594;8.734;2023-02-15T11:43:53;25.20;;;14.88;;
34573;SDS011;20809;49.594;8.734;2023-02-15T11:47:09;27.23;;;15.90;;
34573;SDS011;20809;49.594;8.734;2023-02-15T11:50:15;28.10;;;16.88;;
34573;SDS011;20809;49.594;8.734;2023-02-15T11:53:22;28.40;;;17.13;;
34573;SDS011;20809;49.594;8.734;2023-02-15T11:56:25;29.92;;;16.85;;
34573;SDS011;20809;49.594;8.734;2023-02-15T11:59:31;27.15;;;17.13;;
34573;SDS011;20809;49.594;8.734;2023-02-15T12:02:35;28.55;;;15.77;;
34573;SDS011;20809;49.594;8.734;2023-02-15T12:05:39;27.80;;;17.55;;
34573;SDS011;20809;49.594;8.734;2023-02-15T12:08:46;30.90;;;18.60;;
34573;SDS011;20809;49.594;8.734;2023-02-15T12:11:52;27.17;;;15.63;;
34573;SDS011;20809;49.594;8.734;2023-02-15T12:14:57;28.33;;;18.30;;
34573;SDS011;20809;49.594;8.734;2023-02-15T12:18:02;25.00;;;16.10;;
34573;SDS011;20809;49.594;8.734;2023-02-15T12:21:05;26.48;;;16.60;;
34573;SDS011;20809;49.594;8.734;2023-02-15T12:27:51;28.00;;;16.23;;
34573;SDS011;20809;49.594;8.734;2023-02-15T12:30:58;29.02;;;16.77;;
34573;SDS011;20809;49.594;8.734;2023-02-15T12:33:59;27.13;;;16.63;;
34573;SDS011;20809;49.594;8.734;2023-02-15T12:37:07;26.70;;;16.23;;
34573;SDS011;20809;49.594;8.734;2023-02-15T12:40:19;29.85;;;16.42;;
34573;SDS011;20809;49.594;8.734;2023-02-15T12:43:38;25.55;;;16.63;;
34573;SDS011;20809;49.594;8.734;2023-02-15T12:46:39;25.30;;;15.70;;
34573;SDS011;20809;49.594;8.734;2023-02-15T12:49:39;24.30;;;15.45;;
34573;SDS011;20809;49.594;8.734;2023-02-15T12:52:40;24.88;;;14.90;;
34573;SDS011;20809;49.594;8.734;2023-02-15T12:55:57;22.25;;;15.05;;
34573;SDS011;20809;49.594;8.734;2023-02-15T12:59:04;25.55;;;16.10;;
34573;SDS011;20809;49.594;8.734;2023-02-15T13:02:06;22.95;;;16.30;;
34573;SDS011;20809;49.594;8.734;2023-02-15T13:08:31;26.42;;;16.27;;
34573;SDS011;20809;49.594;8.734;2023-02-15T13:11:36;26.80;;;16.60;;
34573;SDS011;20809;49.594;8.734;2023-02-15T13:14:42;23.42;;;14.52;;
34573;SDS011;20809;49.594;8.734;2023-02-15T13:17:45;23.23;;;14.48;;
34573;SDS011;20809;49.594;8.734;2023-02-15T13:20:48;23.13;;;15.13;;
34573;SDS011;20809;49.594;8.734;2023-02-15T13:23:56;25.15;;;16.65;;
34573;SDS011;20809;49.594;8.734;2023-02-15T13:27:01;23.67;;;15.77;;
34573;SDS011;20809;49.594;8.734;2023-02-15T13:30:03;27.90;;;15.77;;
34573;SDS011;20809;49.594;8.734;2023-02-15T13:33:34;27.50;;;17.23;;
34573;SDS011;20809;49.594;8.734;2023-02-15T13:40:21;26.13;;;15.80;;
34573;SDS011;20809;49.594;8.734;2023-02-15T13:43:52;23.83;;;14.57;;
34573;SDS011;20809;49.594;8.734;2023-02-15T13:47:01;29.30;;;15.57;;
34573;SDS011;20809;49.594;8.734;2023-02-15T13:50:10;25.60;;;15.57;;
34573;SDS011;20809;49.594;8.734;2023-02-15T13:53:28;17.80;;;11.40;;
34573;SDS011;20809;49.594;8.734;2023-02-15T14:00:54;25.35;;;16.70;;
34573;SDS011;20809;49.594;8.734;2023-02-15T14:13:50;25.67;;;16.35;;
34573;SDS011;20809;49.594;8.734;2023-02-15T14:20:24;30.08;;;17.45;;
34573;SDS011;20809;49.594;8.734;2023-02-15T14:26:56;26.15;;;17.27;;
34573;SDS011;20809;49.594;8.734;2023-02-15T14:30:36;30.83;;;18.63;;
34573;SDS011;20809;49.594;8.734;2023-02-15T14:33:37;26.80;;;17.95;;
34573;SDS011;20809;49.594;8.734;2023-02-15T14:36:40;25.83;;;17.65;;
34573;SDS011;20809;49.594;8.734;2023-02-15T14:39:46;28.00;;;18.08;;
34573;SDS011;20809;49.594;8.734;2023-02-15T14:50:27;28.17;;;16.80;;
34573;SDS011;20809;49.594;8.734;2023-02-15T14:53:33;32.45;;;18.80;;
34573;SDS011;20809;49.594;8.734;2023-02-15T14:56:37;26.92;;;18.23;;
34573;SDS011;20809;49.594;8.734;2023-02-15T14:59:52;31.98;;;20.38;;
34573;SDS011;20809;49.594;8.734;2023-02-15T15:02:58;33.83;;;20.35;;
34573;SDS011;20809;49.594;8.734;2023-02-15T15:06:00;35.50;;;20.13;;
34573;SDS011;20809;49.594;8.734;2023-02-15T15:09:10;37.90;;;21.30;;
34573;SDS011;20809;49.594;8.734;2023-02-15T15:19:00;39.30;;;22.15;;
34573;SDS011;20809;49.594;8.734;2023-02-15T15:21:54;34.90;;;21.05;;
34573;SDS011;20809;49.594;8.734;2023-02-15T15:31:37;37.22;;;21.23;;
34573;SDS011;20809;49.594;8.734;2023-02-15T15:35:06;38.28;;;22.48;;
34573;SDS011;20809;49.594;8.734;2023-02-15T15:41:52;33.60;;;20.02;;
34573;SDS011;20809;49.594;8.734;2023-02-15T15:48:46;43.65;;;22.77;;
34573;SDS011;20809;49.594;8.734;2023-02-15T15:51:47;37.95;;;21.90;;
34573;SDS011;20809;49.594;8.734;2023-02-15T15:54:50;39.92;;;22.13;;
34573;SDS011;20809;49.594;8.734;2023-02-15T15:57:56;43.20;;;22.90;;
34573;SDS011;20809;49.594;8.734;2023-02-15T16:01:02;44.75;;;24.05;;
34573;SDS011;20809;49.594;8.734;2023-02-15T16:04:11;43.13;;;23.27;;
34573;SDS011;20809;49.594;8.734;2023-02-15T16:07:16;46.70;;;24.80;;
34573;SDS011;20809;49.594;8.734;2023-02-15T16:10:25;40.10;;;23.03;;
34573;SDS011;20809;49.594;8.734;2023-02-15T16:13:28;43.33;;;24.55;;
34573;SDS011;20809;49.594;8.734;2023-02-15T16:16:28;44.47;;;25.33;;
34573;SDS011;20809;49.594;8.734;2023-02-15T16:22:33;45.65;;;24.63;;
34573;SDS011;20809;49.594;8.734;2023-02-15T16:28:50;48.40;;;26.08;;
34573;SDS011;20809;49.594;8.734;2023-02-15T16:32:00;49.72;;;27.50;;
34573;SDS011;20809;49.594;8.734;2023-02-15T16:35:02;54.42;;;28.55;;
34573;SDS011;20809;49.594;8.734;2023-02-15T16:38:03;50.63;;;27.13;;
34573;SDS011;20809;49.594;8.734;2023-02-15T16:41:04;56.67;;;28.05;;
34573;SDS011;20809;49.594;8.734;2023-02-15T16:44:06;58.30;;;31.15;;
34573;SDS011;20809;49.594;8.734;2023-02-15T16:47:15;54.45;;;29.42;;
34573;SDS011;20809;49.594;8.734;2023-02-15T16:53:24;63.15;;;33.13;;
34573;SDS011;20809;49.594;8.734;2023-02-15T16:56:27;60.75;;;31.25;;
34573;SDS011;20809;49.594;8.734;2023-02-15T17:02:39;61.17;;;31.23;;
34573;SDS011;20809;49.594;8.734;2023-02-15T17:06:00;51.10;;;28.05;;
34573;SDS011;20809;49.594;8.734;2023-02-15T17:09:04;59.50;;;29.65;;
34573;SDS011;20809;49.594;8.734;2023-02-15T17:12:08;54.75;;;28.73;;
34573;SDS011;20809;49.594;8.734;2023-02-15T17:18:44;56.40;;;31.08;;
34573;SDS011;20809;49.594;8.734;2023-02-15T17:21:48;60.42;;;30.38;;
34573;SDS011;20809;49.594;8.734;2023-02-15T17:24:57;61.25;;;31.23;;
34573;SDS011;20809;49.594;8.734;2023-02-15T17:27:59;63.78;;;30.02;;
34573;SDS011;20809;49.594;8.734;2023-02-15T17:30:59;60.70;;;29.45;;
34573;SDS011;20809;49.594;8.734;2023-02-15T17:34:09;60.25;;;30.85;;
34573;SDS011;20809;49.594;8.734;2023-02-15T17:37:46;62.85;;;31.15;;
34573;SDS011;20809;49.594;8.734;2023-02-15T17:40:48;67.25;;;31.85;;
34573;SDS011;20809;49.594;8.734;2023-02-15T17:43:49;63.20;;;30.27;;
34573;SDS011;20809;49.594;8.734;2023-02-15T17:46:49;71.53;;;31.77;;
34573;SDS011;20809;49.594;8.734;2023-02-15T17:49:50;67.05;;;29.27;;
34573;SDS011;20809;49.594;8.734;2023-02-15T17:52:52;63.20;;;30.73;;
34573;SDS011;20809;49.594;8.734;2023-02-15T17:55:55;66.43;;;31.67;;
34573;SDS011;20809;49.594;8.734;2023-02-15T17:58:56;60.90;;;30.27;;
34573;SDS011;20809;49.594;8.734;2023-02-15T18:01:58;67.07;;;32.20;;
34573;SDS011;20809;49.594;8.734;2023-02-15T18:05:17;69.55;;;32.40;;
34573;SDS011;20809;49.594;8.734;2023-02-15T18:08:36;65.40;;;30.67;;
34573;SDS011;20809;49.594;8.734;2023-02-15T18:11:56;67.78;;;31.70;;
34573;SDS011;20809;49.594;8.734;2023-02-15T18:14:57;72.25;;;33.95;;
34573;SDS011;20809;49.594;8.734;2023-02-15T18:17:58;65.90;;;31.88;;
34573;SDS011;20809;49.594;8.734;2023-02-15T18:20:59;66.88;;;32.38;;
34573;SDS011;20809;49.594;8.734;2023-02-15T18:24:00;71.82;;;33.60;;
34573;SDS011;20809;49.594;8.734;2023-02-15T18:27:01;74.35;;;34.90;;
34573;SDS011;20809;49.594;8.734;2023-02-15T18:30:04;62.63;;;29.92;;
34573;SDS011;20809;49.594;8.734;2023-02-15T18:33:14;84.90;;;32.25;;
34573;SDS011;20809;49.594;8.734;2023-02-15T18:36:42;55.60;;;27.48;;
34573;SDS011;20809;49.594;8.734;2023-02-15T18:39:45;192.13;;;39.70;;
34573;SDS011;20809;49.594;8.734;2023-02-15T18:42:47;66.38;;;29.00;;
34573;SDS011;20809;49.594;8.734;2023-02-15T18:45:48;91.25;;;31.52;;
34573;SDS011;20809;49.594;8.734;2023-02-15T18:48:49;66.03;;;28.90;;
34573;SDS011;20809;49.594;8.734;2023-02-15T18:51:50;66.30;;;28.95;;
34573;SDS011;20809;49.594;8.734;2023-02-15T18:54:52;183.27;;;34.55;;
34573;SDS011;20809;49.594;8.734;2023-02-15T18:57:58;53.72;;;26.55;;
34573;SDS011;20809;49.594;8.734;2023-02-15T19:01:00;223.02;;;36.63;;
34573;SDS011;20809;49.594;8.734;2023-02-15T19:04:01;60.65;;;28.30;;
34573;SDS011;20809;49.594;8.734;2023-02-15T19:07:02;100.85;;;33.38;;
34573;SDS011;20809;49.594;8.734;2023-02-15T19:10:04;84.95;;;30.98;;
34573;SDS011;20809;49.594;8.734;2023-02-15T19:13:10;67.10;;;29.73;;
34573;SDS011;20809;49.594;8.734;2023-02-15T19:16:54;136.25;;;33.03;;
34573;SDS011;20809;49.594;8.734;2023-02-15T19:19:36;62.28;;;27.70;;
34573;SDS011;20809;49.594;8.734;2023-02-15T19:22:37;113.63;;;34.35;;
34573;SDS011;20809;49.594;8.734;2023-02-15T19:25:38;183.65;;;38.40;;
34573;SDS011;20809;49.594;8.734;2023-02-15T19:28:40;245.30;;;40.17;;
34573;SDS011;20809;49.594;8.734;2023-02-15T19:31:41;205.45;;;33.60;;
34573;SDS011;20809;49.594;8.734;2023-02-15T19:34:41;190.38;;;34.85;;
34573;SDS011;20809;49.594;8.734;2023-02-15T19:37:43;78.72;;;26.48;;
34573;SDS011;20809;49.594;8.734;2023-02-15T19:40:46;80.35;;;25.48;;
34573;SDS011;20809;49.594;8.734;2023-02-15T19:43:49;150.45;;;31.63;;
34573;SDS011;20809;49.594;8.734;2023-02-15T19:46:54;130.90;;;31.13;;
34573;SDS011;20809;49.594;8.734;2023-02-15T19:49:54;81.30;;;29.92;;
34573;SDS011;20809;49.594;8.734;2023-02-15T19:53:00;158.93;;;33.88;;
34573;SDS011;20809;49.594;8.734;2023-02-15T19:56:02;67.13;;;25.75;;
34573;SDS011;20809;49.594;8.734;2023-02-15T20:02:04;88.83;;;25.93;;
34573;SDS011;20809;49.594;8.734;2023-02-15T20:05:05;126.00;;;29.17;;
34573;SDS011;20809;49.594;8.734;2023-02-15T20:11:13;54.83;;;22.55;;
34573;SDS011;20809;49.594;8.734;2023-02-15T20:14:14;89.15;;;25.35;;
34573;SDS011;20809;49.594;8.734;2023-02-15T20:17:15;97.63;;;28.25;;
34573;SDS011;20809;49.594;8.734;2023-02-15T20:20:16;83.30;;;26.90;;
34573;SDS011;20809;49.594;8.734;2023-02-15T20:23:21;120.80;;;30.60;;
34573;SDS011;20809;49.594;8.734;2023-02-15T20:26:25;198.23;;;36.22;;
34573;SDS011;20809;49.594;8.734;2023-02-15T20:29:28;128.65;;;26.23;;
34573;SDS011;20809;49.594;8.734;2023-02-15T20:32:29;95.40;;;25.73;;
34573;SDS011;20809;49.594;8.734;2023-02-15T20:35:30;84.05;;;24.75;;
34573;SDS011;20809;49.594;8.734;2023-02-15T20:38:31;101.47;;;28.90;;
34573;SDS011;20809;49.594;8.734;2023-02-15T20:41:32;102.30;;;28.15;;
34573;SDS011;20809;49.594;8.734;2023-02-15T20:44:36;120.18;;;30.45;;
34573;SDS011;20809;49.594;8.734;2023-02-15T20:47:40;69.75;;;24.08;;
34573;SDS011;20809;49.594;8.734;2023-02-15T20:50:43;151.55;;;30.50;;
34573;SDS011;20809;49.594;8.734;2023-02-15T20:53:44;50.42;;;24.55;;
34573;SDS011;20809;49.594;8.734;2023-02-15T20:56:45;67.18;;;24.95;;
34573;SDS011;20809;49.594;8.734;2023-02-15T20:59:47;151.07;;;28.90;;
34573;SDS011;20809;49.594;8.734;2023-02-15T21:02:52;177.02;;;36.65;;
34573;SDS011;20809;49.594;8.734;2023-02-15T21:05:55;249.40;;;36.40;;